createdAt,value
2022-10-30T00:00:01.455Z,101855.34
2022-10-30T00:02:41.607Z,101857.63
2022-10-30T00:05:09.504Z,101841.91
2022-10-30T00:07:37.909Z,101853.47
2022-10-30T00:10:06.427Z,101851.00
2022-10-30T00:12:34.295Z,101850.97
2022-10-30T00:15:02.584Z,101849.09
2022-10-30T00:17:32.674Z,101850.94
2022-10-30T00:20:00.710Z,101849.69
2022-10-30T00:22:31.878Z,101846.97
2022-10-30T00:25:07.683Z,101842.63
2022-10-30T00:27:35.427Z,101849.47
2022-10-30T00:30:03.858Z,101844.28
2022-10-30T00:32:31.552Z,101832.72
2022-10-30T00:35:01.031Z,101834.16
2022-10-30T00:37:28.483Z,101837.44
2022-10-30T00:39:56.289Z,101834.97
2022-10-30T00:42:29.611Z,101832.06
2022-10-30T00:45:11.921Z,101832.88
2022-10-30T00:48:08.029Z,101829.78
2022-10-30T00:50:39.893Z,101827.50
2022-10-30T00:53:28.897Z,101830.19
2022-10-30T00:56:12.110Z,101826.47
2022-10-30T00:58:48.959Z,101825.63
2022-10-30T01:01:56.177Z,101821.50
2022-10-30T01:04:58.177Z,101819.22
2022-10-30T01:07:37.443Z,101816.72
2022-10-30T01:10:08.972Z,101817.75
2022-10-30T01:12:39.126Z,101823.06
2022-10-30T01:15:08.102Z,101818.94
2022-10-30T01:17:35.756Z,101813.16
2022-10-30T01:20:28.379Z,101818.53
2022-10-30T01:23:16.379Z,101804.44
2022-10-30T01:26:29.463Z,101820.16
2022-10-30T01:29:20.154Z,101821.78
2022-10-30T01:31:59.520Z,101815.19
2022-10-30T01:34:56.546Z,101818.25
2022-10-30T01:37:34.723Z,101812.84
2022-10-30T01:40:16.065Z,101810.78
2022-10-30T01:42:44.572Z,101811.97
2022-10-30T01:45:30.631Z,101813.97
2022-10-30T01:48:35.927Z,101809.34
2022-10-30T01:51:37.446Z,101811.03
2022-10-30T01:54:24.184Z,101816.59
2022-10-30T01:57:01.147Z,101813.72
2022-10-30T01:59:41.209Z,101817.59
2022-10-30T02:02:10.857Z,101815.44
2022-10-30T02:04:39.830Z,101811.25
2022-10-30T02:07:08.260Z,101809.31
2022-10-30T02:09:43.029Z,101808.75
2022-10-30T02:12:14.500Z,101810.84
2022-10-30T02:14:46.011Z,101805.22
2022-10-30T02:17:13.988Z,101805.44
2022-10-30T02:19:47.618Z,101805.09
2022-10-30T02:22:15.610Z,101797.50
2022-10-30T02:24:47.876Z,101798.28
2022-10-30T02:27:15.856Z,101801.00
2022-10-30T02:29:43.511Z,101788.69
2022-10-30T02:32:13.082Z,101797.91
2022-10-30T02:34:52.216Z,101799.13
2022-10-30T02:37:21.429Z,101789.25
2022-10-30T02:39:57.122Z,101787.56
2022-10-30T02:42:25.164Z,101780.94
2022-10-30T02:44:55.370Z,101786.75
2022-10-30T02:47:24.285Z,101783.41
2022-10-30T02:49:52.432Z,101784.00
2022-10-30T02:52:20.322Z,101786.47
2022-10-30T02:54:48.280Z,101788.25
2022-10-30T02:57:16.026Z,101786.84
2022-10-30T02:59:45.430Z,101789.72
2022-10-30T03:02:13.953Z,101790.06
2022-10-30T03:04:41.457Z,101787.09
2022-10-30T03:07:12.221Z,101798.50
2022-10-30T03:09:39.854Z,101790.13
2022-10-30T03:12:09.406Z,101787.53
2022-10-30T03:14:37.151Z,101789.78
2022-10-30T03:17:11.216Z,101783.00
2022-10-30T03:19:39.116Z,101789.06
2022-10-30T03:22:06.589Z,101785.94
2022-10-30T03:24:36.622Z,101785.34
2022-10-30T03:27:04.755Z,101786.22
2022-10-30T03:29:33.270Z,101781.16
2022-10-30T03:32:04.378Z,101788.50
2022-10-30T03:34:37.162Z,101780.06
2022-10-30T03:37:07.748Z,101778.78
2022-10-30T03:39:36.307Z,101772.59
2022-10-30T03:42:03.965Z,101774.88
2022-10-30T03:44:31.759Z,101769.78
2022-10-30T03:46:59.994Z,101769.06
2022-10-30T03:49:31.200Z,101771.53
2022-10-30T03:52:00.657Z,101776.34
2022-10-30T03:54:28.758Z,101774.41
2022-10-30T03:56:59.945Z,101781.16
2022-10-30T03:59:32.350Z,101782.88
2022-10-30T04:04:46.541Z,101782.28
2022-10-30T04:07:14.793Z,101789.56
2022-10-30T04:09:51.543Z,101790.41
2022-10-30T04:12:20.903Z,101784.56
2022-10-30T04:14:49.128Z,101791.63
2022-10-30T04:17:17.221Z,101790.75
2022-10-30T04:19:44.978Z,101790.13
2022-10-30T04:22:12.720Z,101792.44
2022-10-30T04:24:40.504Z,101789.69
2022-10-30T04:27:14.539Z,101786.56
2022-10-30T04:29:48.441Z,101790.63
2022-10-30T04:32:16.524Z,101797.28
2022-10-30T04:34:43.956Z,101792.84
2022-10-30T04:37:17.857Z,101793.31
2022-10-30T04:39:47.587Z,101787.69
2022-10-30T04:42:23.848Z,101791.84
2022-10-30T04:44:58.369Z,101790.75
2022-10-30T04:49:59.564Z,101787.81
2022-10-30T04:52:27.061Z,101776.16
2022-10-30T04:55:06.394Z,101782.19
2022-10-30T04:57:39.377Z,101781.53
2022-10-30T05:00:09.431Z,101773.88
2022-10-30T05:02:38.742Z,101772.56
2022-10-30T05:05:08.952Z,101773.06
2022-10-30T05:07:36.866Z,101780.91
2022-10-30T05:10:15.150Z,101769.81
2022-10-30T05:12:45.984Z,101773.69
2022-10-30T05:15:14.696Z,101770.56
2022-10-30T05:17:42.769Z,101773.06
2022-10-30T05:20:13.469Z,101769.81
2022-10-30T05:22:44.221Z,101774.59
2022-10-30T05:25:12.607Z,101774.59
2022-10-30T05:27:40.320Z,101771.06
2022-10-30T05:30:12.844Z,101774.94
2022-10-30T05:32:41.891Z,101767.66
2022-10-30T05:35:27.507Z,101776.13
2022-10-30T05:37:59.953Z,101770.72
2022-10-30T05:40:28.805Z,101771.81
2022-10-30T05:43:00.566Z,101775.13
2022-10-30T05:45:29.018Z,101771.78
2022-10-30T05:48:04.588Z,101768.09
2022-10-30T05:50:39.622Z,101768.25
2022-10-30T05:53:21.672Z,101769.00
2022-10-30T05:56:00.163Z,101768.19
2022-10-30T05:58:34.297Z,101766.53
2022-10-30T06:01:09.019Z,101769.47
2022-10-30T06:03:45.020Z,101776.03
2022-10-30T06:06:14.348Z,101769.66
2022-10-30T06:08:43.712Z,101767.91
2022-10-30T06:11:42.295Z,101773.63
2022-10-30T06:14:11.635Z,101768.66
2022-10-30T06:16:49.095Z,101770.78
2022-10-30T06:19:18.646Z,101773.63
2022-10-30T06:21:49.961Z,101765.78
2022-10-30T06:24:37.731Z,101772.44
2022-10-30T06:27:25.843Z,101771.59
2022-10-30T06:29:55.538Z,101780.81
2022-10-30T06:32:23.555Z,101768.00
2022-10-30T06:34:51.312Z,101770.88
2022-10-30T06:37:19.210Z,101775.28
2022-10-30T06:39:47.909Z,101776.06
2022-10-30T06:42:46.599Z,101778.09
2022-10-30T06:45:32.379Z,101773.19
2022-10-30T06:48:02.510Z,101782.81
2022-10-30T06:50:40.002Z,101780.66
2022-10-30T06:53:08.148Z,101784.59
2022-10-30T06:55:37.031Z,101778.88
2022-10-30T06:58:29.143Z,101794.31
2022-10-30T07:01:06.954Z,101789.44
2022-10-30T07:03:37.884Z,101796.28
2022-10-30T07:06:09.882Z,101794.41
2022-10-30T07:08:39.040Z,101788.56
2022-10-30T07:11:07.255Z,101794.66
2022-10-30T07:14:10.072Z,101786.53
2022-10-30T07:16:45.323Z,101789.78
2022-10-30T07:19:20.570Z,101790.06
2022-10-30T07:21:49.265Z,101794.22
2022-10-30T07:24:17.987Z,101794.47
2022-10-30T07:27:04.117Z,101800.13
2022-10-30T07:29:37.046Z,101792.84
2022-10-30T07:32:30.701Z,101804.75
2022-10-30T07:35:33.503Z,101803.13
2022-10-30T07:38:21.296Z,101813.03
2022-10-30T07:40:56.662Z,101816.41
2022-10-30T07:43:43.294Z,101820.31
2022-10-30T07:46:30.840Z,101826.53
2022-10-30T07:49:11.468Z,101823.19
2022-10-30T07:51:48.322Z,101832.50
2022-10-30T07:54:16.754Z,101837.34
2022-10-30T07:56:44.223Z,101832.94
2022-10-30T07:59:49.664Z,101839.38
2022-10-30T08:02:43.636Z,101836.78
2022-10-30T08:05:35.494Z,101842.75
2022-10-30T08:08:17.853Z,101842.69
2022-10-30T08:10:45.502Z,101841.16
2022-10-30T08:13:16.010Z,101838.66
2022-10-30T08:15:43.620Z,101844.16
2022-10-30T08:18:21.788Z,101838.31
2022-10-30T08:20:51.054Z,101843.09
2022-10-30T08:23:22.183Z,101836.72
2022-10-30T08:25:49.896Z,101835.03
2022-10-30T08:28:22.058Z,101839.41
2022-10-30T08:30:49.922Z,101839.41
2022-10-30T08:33:22.818Z,101844.53
2022-10-30T08:36:04.225Z,101846.03
2022-10-30T08:38:40.796Z,101852.50
2022-10-30T08:41:56.234Z,101843.53
2022-10-30T08:44:24.016Z,101849.56
2022-10-30T08:47:10.279Z,101851.59
2022-10-30T08:52:42.297Z,101851.22
2022-10-30T08:55:17.293Z,101851.19
2022-10-30T08:57:45.607Z,101850.78
2022-10-30T09:00:14.565Z,101844.00
2022-10-30T09:03:00.944Z,101850.91
2022-10-30T09:05:51.192Z,101844.88
2022-10-30T09:08:38.571Z,101848.22
2022-10-30T09:11:16.601Z,101851.81
2022-10-30T09:13:51.961Z,101850.88
2022-10-30T09:16:19.655Z,101847.00
2022-10-30T09:18:51.557Z,101852.59
2022-10-30T09:21:20.222Z,101841.00
2022-10-30T09:23:56.839Z,101848.06
2022-10-30T09:26:36.612Z,101846.59
2022-10-30T09:29:11.820Z,101852.22
2022-10-30T09:32:08.747Z,101847.84
2022-10-30T09:35:19.966Z,101847.25
2022-10-30T09:38:05.311Z,101853.44
2022-10-30T09:41:04.776Z,101857.59
2022-10-30T09:44:00.075Z,101857.81
2022-10-30T09:46:31.061Z,101854.50
2022-10-30T09:52:08.546Z,101845.78
2022-10-30T09:55:06.190Z,101851.59
2022-10-30T09:57:46.502Z,101852.00
2022-10-30T10:00:18.908Z,101859.28
2022-10-30T10:03:01.022Z,101854.09
2022-10-30T10:05:47.568Z,101866.94
2022-10-30T10:08:43.154Z,101864.59
2022-10-30T10:11:42.733Z,101858.19
2022-10-30T10:14:43.703Z,101856.28
2022-10-30T10:17:20.689Z,101858.16
2022-10-30T10:20:17.550Z,101856.06
2022-10-30T10:22:52.613Z,101862.47
2022-10-30T10:25:22.291Z,101871.38
2022-10-30T10:28:05.251Z,101861.41
2022-10-30T10:31:05.408Z,101861.78
2022-10-30T10:33:33.358Z,101862.78
2022-10-30T10:36:05.530Z,101860.53
2022-10-30T10:38:59.600Z,101861.31
2022-10-30T10:41:48.565Z,101863.56
2022-10-30T10:45:01.421Z,101860.00
2022-10-30T10:48:06.191Z,101856.81
2022-10-30T10:50:53.445Z,101861.50
2022-10-30T10:53:30.342Z,101855.22
2022-10-30T10:56:00.435Z,101861.19
2022-10-30T10:59:00.061Z,101857.16
2022-10-30T11:01:39.102Z,101854.44
2022-10-30T11:04:33.063Z,101846.72
2022-10-30T11:07:15.774Z,101853.44
2022-10-30T11:09:47.845Z,101842.00
2022-10-30T11:12:20.034Z,101839.56
2022-10-30T11:15:02.488Z,101833.50
2022-10-30T11:17:56.531Z,101836.75
2022-10-30T11:21:17.214Z,101834.19
2022-10-30T11:23:47.647Z,101830.59
2022-10-30T11:26:19.176Z,101832.28
2022-10-30T11:28:58.628Z,101835.69
2022-10-30T11:31:40.575Z,101823.19
2022-10-30T11:34:18.198Z,101823.31
2022-10-30T11:36:48.206Z,101821.94
2022-10-30T11:39:32.923Z,101818.91
2022-10-30T11:42:19.052Z,101813.72
2022-10-30T11:44:50.008Z,101813.28
2022-10-30T11:47:23.691Z,101811.66
2022-10-30T11:50:01.938Z,101800.75
2022-10-30T11:52:29.971Z,101789.84
2022-10-30T11:55:04.479Z,101798.69
2022-10-30T11:57:43.218Z,101796.22
2022-10-30T12:00:22.053Z,101795.66
2022-10-30T12:02:53.899Z,101796.69
2022-10-30T12:05:41.662Z,101800.25
2022-10-30T12:08:11.172Z,101797.25
2022-10-30T12:10:50.799Z,101791.72
2022-10-30T12:13:24.317Z,101795.00
2022-10-30T12:16:15.263Z,101785.09
2022-10-30T12:19:02.403Z,101788.22
2022-10-30T12:21:38.675Z,101784.81
2022-10-30T12:24:17.669Z,101786.50
2022-10-30T12:26:50.126Z,101789.03
2022-10-30T12:29:22.379Z,101784.09
2022-10-30T12:31:57.168Z,101787.38
2022-10-30T12:34:50.213Z,101782.34
2022-10-30T12:37:39.810Z,101768.00
2022-10-30T12:40:39.360Z,101773.75
2022-10-30T12:43:20.700Z,101767.06
2022-10-30T12:45:55.109Z,101759.06
2022-10-30T12:48:23.730Z,101763.06
2022-10-30T12:51:21.332Z,101752.00
2022-10-30T12:54:07.822Z,101746.91
2022-10-30T12:56:40.467Z,101740.53
2022-10-30T12:59:45.243Z,101750.66
2022-10-30T13:02:27.723Z,101742.22
2022-10-30T13:05:02.057Z,101737.41
2022-10-30T13:08:01.530Z,101738.44
2022-10-30T13:10:45.835Z,101730.31
2022-10-30T13:13:26.847Z,101740.25
2022-10-30T13:15:58.453Z,101725.19
2022-10-30T13:18:27.817Z,101733.16
2022-10-30T13:21:21.809Z,101727.88
2022-10-30T13:23:56.571Z,101721.28
2022-10-30T13:26:51.524Z,101719.28
2022-10-30T13:29:29.694Z,101720.72
2022-10-30T13:32:18.747Z,101723.44
2022-10-30T13:35:36.761Z,101719.25
2022-10-30T13:38:23.669Z,101724.06
2022-10-30T13:41:50.308Z,101717.59
2022-10-30T13:44:55.538Z,101726.06
2022-10-30T13:47:52.062Z,101726.91
2022-10-30T13:50:58.577Z,101721.97
2022-10-30T13:53:30.608Z,101718.06
2022-10-30T13:55:58.092Z,101720.53
2022-10-30T13:58:38.009Z,101718.41
2022-10-30T14:01:16.180Z,101721.72
2022-10-30T14:04:07.357Z,101713.09
2022-10-30T14:06:59.370Z,101715.56
2022-10-30T14:10:02.074Z,101714.94
2022-10-30T14:12:44.662Z,101710.72
2022-10-30T14:15:28.238Z,101714.09
2022-10-30T14:18:14.209Z,101710.66
2022-10-30T14:20:47.967Z,101708.88
2022-10-30T14:23:46.220Z,101706.91
2022-10-30T14:26:15.521Z,101702.09
2022-10-30T14:28:48.556Z,101705.75
2022-10-30T14:31:19.622Z,101698.09
2022-10-30T14:33:57.312Z,101701.00
2022-10-30T14:36:40.446Z,101696.53
2022-10-30T14:39:17.348Z,101706.56
2022-10-30T14:42:14.584Z,101706.56
2022-10-30T14:45:03.926Z,101700.19
2022-10-30T14:48:08.395Z,101695.16
2022-10-30T14:51:14.063Z,101692.19
2022-10-30T14:54:09.585Z,101682.41
2022-10-30T14:57:20.399Z,101686.41
2022-10-30T14:59:48.621Z,101679.31
2022-10-30T15:02:31.213Z,101684.84
2022-10-30T15:05:16.889Z,101685.41
2022-10-30T15:08:03.186Z,101692.72
2022-10-30T15:10:36.710Z,101693.53
2022-10-30T15:13:22.110Z,101694.94
2022-10-30T15:16:12.304Z,101699.66
2022-10-30T15:18:47.525Z,101704.13
2022-10-30T15:21:23.555Z,101696.81
2022-10-30T15:23:55.424Z,101696.09
2022-10-30T15:26:26.799Z,101700.94
2022-10-30T15:28:55.379Z,101697.38
2022-10-30T15:31:28.150Z,101694.22
2022-10-30T15:33:58.491Z,101695.50
2022-10-30T15:36:36.543Z,101694.66
2022-10-30T15:39:05.900Z,101699.28
2022-10-30T15:41:41.817Z,101702.44
2022-10-30T15:44:11.510Z,101700.56
2022-10-30T15:46:46.617Z,101705.38
2022-10-30T15:49:32.044Z,101706.44
2022-10-30T15:52:02.193Z,101708.31
2022-10-30T15:54:35.327Z,101709.59
2022-10-30T15:57:37.011Z,101706.06
2022-10-30T16:00:12.337Z,101702.25
2022-10-30T16:02:42.990Z,101710.56
2022-10-30T16:05:26.180Z,101707.59
2022-10-30T16:08:04.011Z,101712.25
2022-10-30T16:10:36.117Z,101714.34
2022-10-30T16:13:36.028Z,101716.09
2022-10-30T16:16:04.510Z,101717.00
2022-10-30T16:18:36.508Z,101712.47
2022-10-30T16:21:12.874Z,101710.75
2022-10-30T16:23:57.388Z,101717.22
2022-10-30T16:26:33.005Z,101709.56
2022-10-30T16:29:13.953Z,101718.72
2022-10-30T16:31:51.177Z,101721.06
2022-10-30T16:35:00.120Z,101715.28
2022-10-30T16:37:45.393Z,101706.88
2022-10-30T16:40:22.127Z,101706.72
2022-10-30T16:43:40.591Z,101711.72
2022-10-30T16:46:15.045Z,101713.66
2022-10-30T16:49:00.413Z,101716.81
2022-10-30T16:51:41.773Z,101716.00
2022-10-30T16:54:47.629Z,101717.06
2022-10-30T16:57:56.154Z,101714.41
2022-10-30T17:00:52.402Z,101717.31
2022-10-30T17:03:46.306Z,101720.25
2022-10-30T17:07:00.917Z,101725.25
2022-10-30T17:09:46.152Z,101723.88
2022-10-30T17:18:26.157Z,101729.72
2022-10-30T17:21:43.855Z,101731.59
2022-10-30T17:27:50.939Z,101745.38
2022-10-30T17:30:41.563Z,101744.34
2022-10-30T17:33:40.406Z,101741.84
2022-10-30T17:36:09.915Z,101742.88
2022-10-30T17:38:38.049Z,101744.56
2022-10-30T17:41:09.250Z,101746.63
2022-10-30T17:43:58.092Z,101745.16
2022-10-30T17:47:51.481Z,101748.66
2022-10-30T17:50:28.086Z,101757.84
2022-10-30T17:53:10.300Z,101762.19
2022-10-30T17:55:43.245Z,101766.97
2022-10-30T17:58:33.351Z,101770.72
2022-10-30T18:01:01.697Z,101765.09
2022-10-30T18:03:33.139Z,101773.19
2022-10-30T18:06:02.623Z,101782.16
2022-10-30T18:08:37.308Z,101782.97
2022-10-30T18:11:12.797Z,101776.75
2022-10-30T18:13:44.414Z,101771.34
2022-10-30T18:16:55.555Z,101778.38
2022-10-30T18:19:58.239Z,101786.72
2022-10-30T18:22:35.468Z,101785.69
2022-10-30T18:25:38.482Z,101779.25
2022-10-30T18:28:12.494Z,101786.56
2022-10-30T18:30:46.484Z,101789.44
2022-10-30T18:33:15.167Z,101784.47
2022-10-30T18:35:53.689Z,101797.75
2022-10-30T18:41:42.821Z,101794.69
2022-10-30T18:44:20.974Z,101792.81
2022-10-30T18:47:02.481Z,101800.28
2022-10-30T18:50:11.646Z,101801.94
2022-10-30T18:53:34.201Z,101796.34
2022-10-30T18:56:39.220Z,101797.38
2022-10-30T18:59:09.544Z,101808.41
2022-10-30T19:02:23.715Z,101806.16
2022-10-30T19:06:07.675Z,101806.34
2022-10-30T19:08:35.335Z,101803.03
2022-10-30T19:11:02.895Z,101803.25
2022-10-30T19:13:36.999Z,101796.84
2022-10-30T19:16:19.404Z,101808.88
2022-10-30T19:18:58.960Z,101820.94
2022-10-30T19:21:39.639Z,101823.44
2022-10-30T19:24:58.464Z,101812.81
2022-10-30T19:28:33.204Z,101809.13
2022-10-30T19:31:08.329Z,101813.66
2022-10-30T19:33:40.989Z,101811.81
2022-10-30T19:36:41.605Z,101811.41
2022-10-30T19:39:24.637Z,101809.34
2022-10-30T19:42:05.944Z,101808.13
2022-10-30T19:44:47.167Z,101803.78
2022-10-30T19:47:20.097Z,101805.06
2022-10-30T19:49:47.612Z,101801.34
2022-10-30T19:52:29.223Z,101802.97
2022-10-30T19:55:13.658Z,101808.16
2022-10-30T19:58:08.681Z,101802.75
2022-10-30T20:01:01.354Z,101802.56
2022-10-30T20:03:34.598Z,101804.44
2022-10-30T20:06:02.261Z,101801.38
2022-10-30T20:08:30.027Z,101805.91
2022-10-30T20:11:03.111Z,101795.97
2022-10-30T20:13:33.737Z,101799.94
2022-10-30T20:16:05.416Z,101796.81
2022-10-30T20:18:35.758Z,101802.84
2022-10-30T20:21:08.636Z,101799.94
2022-10-30T20:23:38.124Z,101813.19
2022-10-30T20:26:23.771Z,101818.81
2022-10-30T20:28:52.134Z,101810.94
2022-10-30T20:31:19.826Z,101814.25
2022-10-30T20:33:47.493Z,101809.69
2022-10-30T20:36:14.934Z,101819.44
2022-10-30T20:38:42.546Z,101815.72
2022-10-30T20:41:26.674Z,101805.53
2022-10-30T20:43:54.067Z,101804.50
2022-10-30T20:46:21.971Z,101807.81
2022-10-30T20:48:49.347Z,101797.22
2022-10-30T20:51:19.154Z,101778.34
2022-10-30T20:53:49.892Z,101772.78
2022-10-30T20:56:17.738Z,101774.25
2022-10-30T20:58:45.031Z,101780.03
2022-10-30T21:01:15.762Z,101771.72
2022-10-30T21:03:55.375Z,101775.66
2022-10-30T21:06:30.143Z,101776.72
2022-10-30T21:08:58.673Z,101784.97
2022-10-30T21:11:26.343Z,101785.44
2022-10-30T21:13:56.713Z,101784.56
2022-10-30T21:16:24.734Z,101783.34
2022-10-30T21:18:53.981Z,101781.47
2022-10-30T21:21:25.681Z,101792.88
2022-10-30T21:24:00.133Z,101796.59
2022-10-30T21:26:28.737Z,101795.78
2022-10-30T21:28:56.245Z,101780.25
2022-10-30T21:31:30.639Z,101786.66
2022-10-30T21:33:58.451Z,101780.41
2022-10-30T21:36:25.767Z,101771.94
2022-10-30T21:38:53.610Z,101766.94
2022-10-30T21:41:25.216Z,101766.09
2022-10-30T21:43:54.159Z,101765.94
2022-10-30T21:46:23.128Z,101774.63
2022-10-30T21:48:50.991Z,101787.28
2022-10-30T21:51:36.654Z,101797.88
2022-10-30T21:54:04.510Z,101797.25
2022-10-30T21:56:36.796Z,101787.72
2022-10-30T21:59:07.569Z,101786.44
2022-10-30T22:01:41.249Z,101794.97
2022-10-30T22:04:12.057Z,101789.78
2022-10-30T22:06:46.589Z,101781.69
2022-10-30T22:09:19.964Z,101770.91
2022-10-30T22:11:58.478Z,101770.09
2022-10-30T22:14:33.986Z,101787.94
2022-10-30T22:17:06.952Z,101785.63
2022-10-30T22:19:36.315Z,101794.16
2022-10-30T22:22:08.018Z,101802.22
2022-10-30T22:24:38.886Z,101800.34
2022-10-30T22:27:10.159Z,101792.69
2022-10-30T22:29:43.662Z,101782.53
2022-10-30T22:32:15.428Z,101787.09
2022-10-30T22:34:58.119Z,101793.94
2022-10-30T22:37:36.076Z,101799.31
2022-10-30T22:40:12.861Z,101791.25
2022-10-30T22:42:51.465Z,101795.00
2022-10-30T22:45:25.131Z,101799.31
2022-10-30T22:48:01.401Z,101801.84
2022-10-30T22:50:30.709Z,101791.03
2022-10-30T22:52:59.393Z,101790.44
2022-10-30T22:55:28.881Z,101799.75
2022-10-30T22:57:56.576Z,101790.81
2022-10-30T23:00:28.073Z,101793.13
2022-10-30T23:02:55.409Z,101793.13
2022-10-30T23:05:23.538Z,101793.94
2022-10-30T23:07:52.120Z,101798.53
2022-10-30T23:10:21.768Z,101791.47
2022-10-30T23:12:49.263Z,101783.16
2022-10-30T23:15:19.470Z,101803.47
2022-10-30T23:17:49.248Z,101786.69
2022-10-30T23:20:17.623Z,101800.59
2022-10-30T23:22:44.943Z,101771.56
2022-10-30T23:25:12.102Z,101734.22
2022-10-30T23:27:39.339Z,101748.34
2022-10-30T23:30:07.363Z,101782.97
2022-10-30T23:32:34.660Z,101785.66
2022-10-30T23:35:02.062Z,101786.47
2022-10-30T23:37:29.456Z,101799.13
2022-10-30T23:39:56.651Z,101783.16
2022-10-30T23:42:23.902Z,101783.59
2022-10-30T23:44:51.204Z,101784.63
2022-10-30T23:47:18.518Z,101779.44
2022-10-30T23:49:45.850Z,101782.94
2022-10-30T23:52:16.176Z,101771.16
2022-10-30T23:54:43.422Z,101771.56
2022-10-30T23:57:11.014Z,101770.94
2022-10-30T23:59:38.377Z,101768.66
